sensor_id;sensor_type;location;lat;lon;timestamp;P1;durP1;ratioP1;P2;durP2;ratioP2
56631;SDS011;42503;39.928;-75.152;2023-06-26T00:04:19;2.42;;;1.73;;
56631;SDS011;42503;39.928;-75.152;2023-06-26T00:14:23;1.80;;;1.70;;
56631;SDS011;42503;39.928;-75.152;2023-06-26T00:24:24;2.17;;;1.70;;
56631;SDS011;42503;39.928;-75.152;2023-06-26T00:34:25;1.40;;;1.30;;
56631;SDS011;42503;39.928;-75.152;2023-06-26T00:44:27;1.70;;;1.60;;
56631;SDS011;42503;39.928;-75.152;2023-06-26T00:54:28;1.73;;;1.52;;
56631;SDS011;42503;39.928;-75.152;2023-06-26T01:04:30;2.33;;;1.73;;
56631;SDS011;42503;39.928;-75.152;2023-06-26T01:14:34;1.60;;;1.50;;
56631;SDS011;42503;39.928;-75.152;2023-06-26T01:24:36;2.22;;;1.70;;
56631;SDS011;42503;39.928;-75.152;2023-06-26T01:34:40;1.67;;;1.42;;
56631;SDS011;42503;39.928;-75.152;2023-06-26T01:44:44;2.10;;;1.85;;
56631;SDS011;42503;39.928;-75.152;2023-06-26T01:54:58;1.77;;;1.40;;
56631;SDS011;42503;39.928;-75.152;2023-06-26T02:05:03;1.38;;;1.27;;
56631;SDS011;42503;39.928;-75.152;2023-06-26T02:15:04;1.60;;;1.40;;
56631;SDS011;42503;39.928;-75.152;2023-06-26T02:25:06;2.40;;;1.80;;
56631;SDS011;42503;39.928;-75.152;2023-06-26T02:35:08;1.98;;;1.35;;
56631;SDS011;42503;39.928;-75.152;2023-06-26T02:45:10;1.42;;;1.33;;
56631;SDS011;42503;39.928;-75.152;2023-06-26T02:55:11;1.50;;;1.40;;
56631;SDS011;42503;39.928;-75.152;2023-06-26T03:05:12;1.45;;;1.35;;
56631;SDS011;42503;39.928;-75.152;2023-06-26T03:15:14;1.67;;;1.58;;
56631;SDS011;42503;39.928;-75.152;2023-06-26T03:25:15;1.42;;;1.20;;
56631;SDS011;42503;39.928;-75.152;2023-06-26T03:35:19;2.47;;;1.55;;
56631;SDS011;42503;39.928;-75.152;2023-06-26T03:45:21;1.50;;;1.30;;
56631;SDS011;42503;39.928;-75.152;2023-06-26T03:55:22;1.67;;;1.58;;
56631;SDS011;42503;39.928;-75.152;2023-06-26T04:05:24;1.48;;;1.38;;
56631;SDS011;42503;39.928;-75.152;2023-06-26T04:15:28;1.70;;;1.42;;
56631;SDS011;42503;39.928;-75.152;2023-06-26T04:25:30;1.60;;;1.50;;
56631;SDS011;42503;39.928;-75.152;2023-06-26T04:35:31;1.60;;;1.50;;
56631;SDS011;42503;39.928;-75.152;2023-06-26T04:45:37;1.42;;;1.33;;
56631;SDS011;42503;39.928;-75.152;2023-06-26T04:55:38;1.55;;;1.30;;
56631;SDS011;42503;39.928;-75.152;2023-06-26T05:05:39;1.63;;;1.45;;
56631;SDS011;42503;39.928;-75.152;2023-06-26T05:15:44;1.30;;;1.20;;
56631;SDS011;42503;39.928;-75.152;2023-06-26T05:25:46;1.45;;;1.35;;
56631;SDS011;42503;39.928;-75.152;2023-06-26T05:35:48;1.60;;;1.42;;
56631;SDS011;42503;39.928;-75.152;2023-06-26T05:45:52;1.80;;;1.58;;
56631;SDS011;42503;39.928;-75.152;2023-06-26T05:55:53;1.65;;;1.50;;
56631;SDS011;42503;39.928;-75.152;2023-06-26T06:05:55;3.42;;;1.75;;
56631;SDS011;42503;39.928;-75.152;2023-06-26T06:15:56;1.60;;;1.48;;
56631;SDS011;42503;39.928;-75.152;2023-06-26T06:25:58;1.13;;;1.02;;
56631;SDS011;42503;39.928;-75.152;2023-06-26T06:35:59;2.20;;;1.30;;
56631;SDS011;42503;39.928;-75.152;2023-06-26T06:46:05;1.30;;;1.20;;
56631;SDS011;42503;39.928;-75.152;2023-06-26T06:56:09;1.70;;;1.60;;
56631;SDS011;42503;39.928;-75.152;2023-06-26T07:06:11;1.40;;;1.30;;
56631;SDS011;42503;39.928;-75.152;2023-06-26T07:16:12;1.48;;;1.38;;
56631;SDS011;42503;39.928;-75.152;2023-06-26T07:26:15;1.60;;;1.50;;
56631;SDS011;42503;39.928;-75.152;2023-06-26T07:36:20;1.20;;;1.10;;
56631;SDS011;42503;39.928;-75.152;2023-06-26T07:46:21;3.88;;;1.42;;
56631;SDS011;42503;39.928;-75.152;2023-06-26T07:56:23;1.25;;;1.02;;
56631;SDS011;42503;39.928;-75.152;2023-06-26T08:06:24;1.38;;;1.27;;
56631;SDS011;42503;39.928;-75.152;2023-06-26T08:16:28;1.42;;;1.33;;
56631;SDS011;42503;39.928;-75.152;2023-06-26T08:26:29;1.65;;;1.55;;
56631;SDS011;42503;39.928;-75.152;2023-06-26T08:36:31;1.55;;;1.45;;
56631;SDS011;42503;39.928;-75.152;2023-06-26T08:46:33;1.27;;;1.17;;
56631;SDS011;42503;39.928;-75.152;2023-06-26T08:56:40;3.40;;;1.13;;
56631;SDS011;42503;39.928;-75.152;2023-06-26T09:06:47;1.40;;;1.30;;
56631;SDS011;42503;39.928;-75.152;2023-06-26T09:16:49;1.33;;;1.23;;
56631;SDS011;42503;39.928;-75.152;2023-06-26T09:26:50;2.03;;;1.52;;
56631;SDS011;42503;39.928;-75.152;2023-06-26T09:36:53;1.52;;;1.27;;
56631;SDS011;42503;39.928;-75.152;2023-06-26T09:46:54;1.30;;;1.20;;
56631;SDS011;42503;39.928;-75.152;2023-06-26T09:57:06;1.33;;;1.23;;
56631;SDS011;42503;39.928;-75.152;2023-06-26T10:07:11;1.30;;;1.20;;
56631;SDS011;42503;39.928;-75.152;2023-06-26T10:17:15;1.58;;;1.33;;
56631;SDS011;42503;39.928;-75.152;2023-06-26T10:27:20;1.43;;;1.33;;
56631;SDS011;42503;39.928;-75.152;2023-06-26T10:37:45;1.60;;;1.20;;
56631;SDS011;42503;39.928;-75.152;2023-06-26T10:47:52;1.30;;;1.20;;
56631;SDS011;42503;39.928;-75.152;2023-06-26T10:57:54;1.35;;;1.25;;
56631;SDS011;42503;39.928;-75.152;2023-06-26T11:18:07;1.50;;;1.40;;
56631;SDS011;42503;39.928;-75.152;2023-06-26T11:28:11;1.40;;;1.30;;
56631;SDS011;42503;39.928;-75.152;2023-06-26T11:38:12;1.30;;;1.10;;
56631;SDS011;42503;39.928;-75.152;2023-06-26T11:48:14;1.92;;;1.25;;
56631;SDS011;42503;39.928;-75.152;2023-06-26T11:58:15;1.50;;;1.40;;
56631;SDS011;42503;39.928;-75.152;2023-06-26T12:08:16;1.25;;;1.15;;
56631;SDS011;42503;39.928;-75.152;2023-06-26T12:18:18;1.45;;;1.35;;
56631;SDS011;42503;39.928;-75.152;2023-06-26T12:28:21;1.30;;;1.20;;
56631;SDS011;42503;39.928;-75.152;2023-06-26T12:38:22;1.50;;;1.40;;
56631;SDS011;42503;39.928;-75.152;2023-06-26T12:48:36;1.58;;;1.20;;
56631;SDS011;42503;39.928;-75.152;2023-06-26T12:58:47;1.38;;;1.27;;
56631;SDS011;42503;39.928;-75.152;2023-06-26T13:08:49;1.45;;;1.35;;
56631;SDS011;42503;39.928;-75.152;2023-06-26T13:18:50;1.38;;;1.27;;
56631;SDS011;42503;39.928;-75.152;2023-06-26T13:28:52;1.30;;;1.20;;
56631;SDS011;42503;39.928;-75.152;2023-06-26T13:38:53;1.73;;;1.63;;
56631;SDS011;42503;39.928;-75.152;2023-06-26T13:48:57;1.30;;;1.20;;
56631;SDS011;42503;39.928;-75.152;2023-06-26T13:58:58;1.25;;;1.15;;
56631;SDS011;42503;39.928;-75.152;2023-06-26T14:09:00;1.50;;;1.38;;
56631;SDS011;42503;39.928;-75.152;2023-06-26T14:19:01;1.48;;;1.38;;
56631;SDS011;42503;39.928;-75.152;2023-06-26T14:29:02;1.58;;;1.40;;
56631;SDS011;42503;39.928;-75.152;2023-06-26T14:39:04;1.63;;;1.50;;
56631;SDS011;42503;39.928;-75.152;2023-06-26T14:49:05;1.50;;;1.40;;
56631;SDS011;42503;39.928;-75.152;2023-06-26T14:59:13;1.13;;;1.02;;
56631;SDS011;42503;39.928;-75.152;2023-06-26T15:09:15;1.92;;;1.40;;
56631;SDS011;42503;39.928;-75.152;2023-06-26T15:19:16;1.80;;;1.70;;
56631;SDS011;42503;39.928;-75.152;2023-06-26T15:29:18;1.63;;;1.52;;
56631;SDS011;42503;39.928;-75.152;2023-06-26T15:39:19;1.98;;;1.77;;
56631;SDS011;42503;39.928;-75.152;2023-06-26T15:49:20;2.47;;;2.28;;
56631;SDS011;42503;39.928;-75.152;2023-06-26T15:59:22;2.20;;;2.05;;
56631;SDS011;42503;39.928;-75.152;2023-06-26T16:09:23;2.75;;;2.45;;
56631;SDS011;42503;39.928;-75.152;2023-06-26T16:19:33;3.38;;;3.05;;
56631;SDS011;42503;39.928;-75.152;2023-06-26T16:29:35;5.50;;;3.33;;
56631;SDS011;42503;39.928;-75.152;2023-06-26T16:39:36;12.75;;;4.57;;
56631;SDS011;42503;39.928;-75.152;2023-06-26T16:49:39;7.75;;;3.88;;
56631;SDS011;42503;39.928;-75.152;2023-06-26T16:59:41;6.70;;;4.60;;
56631;SDS011;42503;39.928;-75.152;2023-06-26T17:09:42;41.92;;;7.32;;
56631;SDS011;42503;39.928;-75.152;2023-06-26T17:19:43;49.30;;;8.15;;
56631;SDS011;42503;39.928;-75.152;2023-06-26T17:29:45;54.65;;;9.40;;
56631;SDS011;42503;39.928;-75.152;2023-06-26T17:39:52;64.53;;;11.40;;
56631;SDS011;42503;39.928;-75.152;2023-06-26T17:49:55;62.33;;;11.32;;
56631;SDS011;42503;39.928;-75.152;2023-06-26T17:59:56;61.60;;;11.88;;
56631;SDS011;42503;39.928;-75.152;2023-06-26T18:09:58;73.35;;;13.18;;
56631;SDS011;42503;39.928;-75.152;2023-06-26T18:20:00;60.15;;;13.20;;
56631;SDS011;42503;39.928;-75.152;2023-06-26T18:30:03;58.60;;;12.52;;
56631;SDS011;42503;39.928;-75.152;2023-06-26T18:40:05;49.15;;;13.55;;
56631;SDS011;42503;39.928;-75.152;2023-06-26T18:50:09;103.55;;;20.52;;
56631;SDS011;42503;39.928;-75.152;2023-06-26T19:00:11;115.55;;;22.70;;
56631;SDS011;42503;39.928;-75.152;2023-06-26T19:10:14;93.32;;;19.85;;
56631;SDS011;42503;39.928;-75.152;2023-06-26T19:20:20;106.65;;;18.98;;
56631;SDS011;42503;39.928;-75.152;2023-06-26T19:30:21;59.90;;;16.65;;
56631;SDS011;42503;39.928;-75.152;2023-06-26T19:40:24;64.60;;;16.83;;
56631;SDS011;42503;39.928;-75.152;2023-06-26T19:50:26;46.20;;;17.52;;
56631;SDS011;42503;39.928;-75.152;2023-06-26T20:00:27;430.80;;;61.72;;
56631;SDS011;42503;39.928;-75.152;2023-06-26T20:10:31;1999.90;;;371.33;;
56631;SDS011;42503;39.928;-75.152;2023-06-26T20:20:34;1996.63;;;388.38;;
56631;SDS011;42503;39.928;-75.152;2023-06-26T20:30:35;1999.90;;;812.47;;
56631;SDS011;42503;39.928;-75.152;2023-06-26T20:40:37;1999.90;;;782.03;;
56631;SDS011;42503;39.928;-75.152;2023-06-26T20:50:38;1999.90;;;719.40;;
56631;SDS011;42503;39.928;-75.152;2023-06-26T21:00:43;1999.90;;;644.35;;
56631;SDS011;42503;39.928;-75.152;2023-06-26T21:10:44;1999.90;;;512.33;;
56631;SDS011;42503;39.928;-75.152;2023-06-26T21:20:48;1999.47;;;432.27;;
56631;SDS011;42503;39.928;-75.152;2023-06-26T21:30:52;1595.20;;;376.60;;
56631;SDS011;42503;39.928;-75.152;2023-06-26T21:40:54;1343.60;;;330.13;;
56631;SDS011;42503;39.928;-75.152;2023-06-26T21:50:55;1093.72;;;284.05;;
56631;SDS011;42503;39.928;-75.152;2023-06-26T22:00:56;904.10;;;240.82;;
56631;SDS011;42503;39.928;-75.152;2023-06-26T22:10:58;764.97;;;205.48;;
56631;SDS011;42503;39.928;-75.152;2023-06-26T22:20:59;635.53;;;168.93;;
56631;SDS011;42503;39.928;-75.152;2023-06-26T22:31:00;565.88;;;145.75;;
56631;SDS011;42503;39.928;-75.152;2023-06-26T22:41:02;482.20;;;121.60;;
56631;SDS011;42503;39.928;-75.152;2023-06-26T22:51:06;452.88;;;107.45;;
56631;SDS011;42503;39.928;-75.152;2023-06-26T23:01:07;407.50;;;99.13;;
56631;SDS011;42503;39.928;-75.152;2023-06-26T23:11:14;356.97;;;86.37;;
56631;SDS011;42503;39.928;-75.152;2023-06-26T23:31:22;243.27;;;62.50;;
56631;SDS011;42503;39.928;-75.152;2023-06-26T23:41:28;224.32;;;56.97;;
56631;SDS011;42503;39.928;-75.152;2023-06-26T23:51:29;190.02;;;49.97;;
